createdAt,value
2018-07-28T00:02:20.800Z,27.00
2018-07-28T00:04:49.077Z,27.10
2018-07-28T00:07:17.391Z,27.10
2018-07-28T00:09:45.725Z,27.00
2018-07-28T00:12:19.671Z,27.00
2018-07-28T00:14:47.213Z,26.90
2018-07-28T00:17:16.496Z,27.00
2018-07-28T00:19:45.902Z,26.90
2018-07-28T00:22:19.924Z,26.90
2018-07-28T00:24:48.206Z,26.90
2018-07-28T00:27:19.347Z,26.90
2018-07-28T00:29:47.605Z,26.90
2018-07-28T00:32:20.340Z,26.90
2018-07-28T00:34:48.620Z,26.90
2018-07-28T00:37:20.424Z,27.00
2018-07-28T00:39:48.715Z,27.00
2018-07-28T00:42:18.953Z,27.10
2018-07-28T00:44:47.227Z,27.00
2018-07-28T00:47:15.481Z,26.90
2018-07-28T00:49:44.524Z,26.90
2018-07-28T00:52:18.768Z,26.90
2018-07-28T00:54:47.071Z,26.90
2018-07-28T00:57:16.260Z,26.90
2018-07-28T00:59:45.465Z,26.90
2018-07-28T01:05:06.333Z,26.90
2018-07-28T01:07:37.869Z,26.90
2018-07-28T01:10:06.152Z,26.90
2018-07-28T01:12:35.390Z,26.70
2018-07-28T01:15:03.671Z,26.80
2018-07-28T01:17:31.930Z,26.70
2018-07-28T01:20:00.720Z,26.70
2018-07-28T01:22:29.962Z,26.70
2018-07-28T01:24:58.790Z,26.70
2018-07-28T01:27:38.553Z,26.60
2018-07-28T01:30:06.840Z,26.60
2018-07-28T01:32:35.098Z,26.60
2018-07-28T01:35:03.381Z,26.60
2018-07-28T01:37:31.636Z,26.50
2018-07-28T01:40:00.915Z,26.50
2018-07-28T01:42:29.177Z,26.50
2018-07-28T01:44:57.502Z,26.50
2018-07-28T01:47:27.758Z,26.40
2018-07-28T01:49:56.060Z,26.30
2018-07-28T01:52:24.456Z,26.30
2018-07-28T01:54:52.749Z,26.30
2018-07-28T02:00:16.258Z,26.30
2018-07-28T02:02:46.485Z,26.20
2018-07-28T02:16:47.916Z,26.10
2018-07-28T02:19:16.216Z,26.00
2018-07-28T02:21:44.494Z,26.00
2018-07-28T02:24:12.824Z,26.00
2018-07-28T02:26:41.121Z,26.00
2018-07-28T02:29:09.393Z,26.00
2018-07-28T02:31:37.709Z,26.00
2018-07-28T02:34:16.457Z,25.90
2018-07-28T02:36:45.881Z,25.90
2018-07-28T02:39:17.522Z,26.00
2018-07-28T02:41:45.803Z,25.90
2018-07-28T02:44:17.605Z,25.80
2018-07-28T02:46:45.905Z,25.60
2018-07-28T02:49:18.555Z,25.30
2018-07-28T02:51:46.853Z,25.20
2018-07-28T02:54:17.125Z,25.20
2018-07-28T02:56:46.657Z,25.20
2018-07-28T02:59:15.746Z,25.30
2018-07-28T03:01:44.656Z,25.20
2018-07-28T03:04:12.188Z,25.20
2018-07-28T03:06:40.487Z,25.10
2018-07-28T03:09:08.812Z,25.10
2018-07-28T03:11:37.077Z,24.90
2018-07-28T03:14:09.233Z,24.80
2018-07-28T03:16:37.550Z,24.80
2018-07-28T03:19:17.842Z,24.60
2018-07-28T03:21:46.120Z,24.60
2018-07-28T03:24:14.414Z,24.70
2018-07-28T03:26:42.709Z,24.70
2018-07-28T03:29:10.997Z,24.70
2018-07-28T03:31:42.755Z,24.80
2018-07-28T03:34:11.097Z,24.70
2018-07-28T03:36:39.401Z,24.90
2018-07-28T03:39:17.893Z,25.00
2018-07-28T03:41:46.169Z,24.80
2018-07-28T03:44:14.455Z,24.60
2018-07-28T03:52:32.355Z,24.50
2018-07-28T03:55:00.650Z,24.50
2018-07-28T03:57:35.145Z,24.50
2018-07-28T04:00:03.460Z,24.50
2018-07-28T04:02:32.735Z,24.70
2018-07-28T04:05:01.080Z,24.80
2018-07-28T04:07:40.248Z,24.90
2018-07-28T04:10:08.508Z,24.80
2018-07-28T04:12:36.816Z,24.80
2018-07-28T04:15:05.104Z,24.70
2018-07-28T04:17:36.866Z,24.80
2018-07-28T04:20:05.176Z,24.80
2018-07-28T04:22:35.405Z,24.90
2018-07-28T04:25:02.940Z,24.80
2018-07-28T04:27:38.860Z,24.70
2018-07-28T04:30:07.174Z,24.60
2018-07-28T04:32:48.820Z,24.70
2018-07-28T04:35:17.096Z,24.60
2018-07-28T04:40:39.731Z,24.40
2018-07-28T04:43:08.004Z,24.50
2018-07-28T04:45:40.014Z,24.40
2018-07-28T04:48:08.283Z,24.50
2018-07-28T04:50:44.837Z,24.50
2018-07-28T04:53:14.772Z,24.40
2018-07-28T04:55:59.701Z,24.50
2018-07-28T04:58:28.002Z,24.50
2018-07-28T05:00:56.280Z,24.60
2018-07-28T05:03:25.518Z,24.80
2018-07-28T05:05:53.794Z,24.70
2018-07-28T05:08:26.824Z,24.70
2018-07-28T05:10:55.129Z,24.70
2018-07-28T05:13:27.844Z,24.70
2018-07-28T05:15:56.146Z,24.70
2018-07-28T05:18:24.472Z,24.70
2018-07-28T05:20:52.793Z,24.80
2018-07-28T05:23:21.092Z,24.90
2018-07-28T05:25:49.367Z,25.10
2018-07-28T05:28:31.245Z,25.10
2018-07-28T05:31:00.876Z,25.10
2018-07-28T05:33:38.940Z,25.20
2018-07-28T05:36:07.235Z,25.40
2018-07-28T05:38:45.857Z,25.30
2018-07-28T05:41:15.836Z,25.20
2018-07-28T05:43:52.924Z,25.30
2018-07-28T05:46:21.181Z,25.40
2018-07-28T05:48:49.488Z,25.40
2018-07-28T05:51:17.797Z,25.40
2018-07-28T05:53:46.098Z,25.40
2018-07-28T05:56:18.137Z,25.20
2018-07-28T05:58:48.134Z,25.30
2018-07-28T06:01:16.409Z,25.10
2018-07-28T06:03:45.537Z,25.00
2018-07-28T06:06:14.764Z,25.00
2018-07-28T06:08:43.102Z,24.80
2018-07-28T06:11:11.388Z,24.80
2018-07-28T06:13:39.650Z,24.80
2018-07-28T06:16:07.922Z,24.80
2018-07-28T06:18:36.216Z,24.90
2018-07-28T06:21:04.536Z,24.80
2018-07-28T06:23:32.801Z,24.70
2018-07-28T06:26:01.185Z,24.70
2018-07-28T06:28:29.406Z,24.80
2018-07-28T06:30:57.731Z,24.70
2018-07-28T06:33:26.057Z,24.70
2018-07-28T06:35:54.541Z,24.60
2018-07-28T06:38:22.828Z,24.40
2018-07-28T06:40:51.117Z,24.40
2018-07-28T06:43:19.449Z,24.40
2018-07-28T06:45:47.764Z,24.40
2018-07-28T06:48:16.219Z,24.40
2018-07-28T06:50:44.847Z,24.30
2018-07-28T06:53:16.237Z,24.40
2018-07-28T06:55:44.865Z,24.30
2018-07-28T06:58:14.845Z,24.50
2018-07-28T07:00:44.087Z,24.50
2018-07-28T07:03:12.641Z,24.60
2018-07-28T07:05:40.962Z,24.60
2018-07-28T07:08:09.249Z,24.70
2018-07-28T07:10:37.524Z,24.60
2018-07-28T07:13:05.053Z,24.60
2018-07-28T07:15:33.318Z,24.70
2018-07-28T07:18:00.824Z,24.70
2018-07-28T07:20:30.357Z,24.70
2018-07-28T07:22:59.268Z,24.60
2018-07-28T07:25:31.396Z,24.70
2018-07-28T07:28:00.676Z,24.70
2018-07-28T07:30:30.339Z,24.80
2018-07-28T07:32:58.613Z,24.70
2018-07-28T07:35:26.976Z,24.80
2018-07-28T07:37:55.265Z,24.80
2018-07-28T07:40:23.555Z,24.50
2018-07-28T07:42:51.880Z,24.40
2018-07-28T07:45:20.160Z,24.30
2018-07-28T07:47:48.519Z,24.30
2018-07-28T07:50:16.805Z,24.40
2018-07-28T07:52:45.368Z,24.30
2018-07-28T07:55:14.830Z,24.30
2018-07-28T07:57:43.869Z,24.30
2018-07-28T08:00:12.182Z,24.30
2018-07-28T08:02:40.461Z,24.10
2018-07-28T08:05:08.781Z,24.10
2018-07-28T08:07:36.291Z,24.00
2018-07-28T08:10:04.578Z,23.90
2018-07-28T08:12:32.937Z,23.90
2018-07-28T08:15:01.171Z,23.90
2018-07-28T08:17:29.712Z,23.90
2018-07-28T08:19:57.989Z,24.00
2018-07-28T08:22:26.290Z,24.10
2018-07-28T08:24:54.592Z,24.20
2018-07-28T08:27:22.944Z,24.10
2018-07-28T08:29:51.322Z,24.10
2018-07-28T08:32:19.655Z,24.20
2018-07-28T08:34:48.242Z,24.30
2018-07-28T08:37:15.803Z,24.20
2018-07-28T08:39:45.307Z,24.40
2018-07-28T08:42:14.024Z,24.40
2018-07-28T08:44:42.352Z,24.60
2018-07-28T08:47:10.689Z,24.60
2018-07-28T08:49:38.248Z,24.60
2018-07-28T08:52:06.550Z,24.90
2018-07-28T08:54:34.894Z,25.00
2018-07-28T08:57:03.152Z,25.10
2018-07-28T08:59:31.429Z,25.30
2018-07-28T09:02:00.832Z,25.20
2018-07-28T09:04:30.032Z,25.40
2018-07-28T09:06:59.464Z,25.50
2018-07-28T09:09:27.724Z,25.60
2018-07-28T09:11:56.033Z,25.70
2018-07-28T09:14:24.324Z,25.90
2018-07-28T09:16:52.601Z,25.90
2018-07-28T09:19:20.912Z,25.90
2018-07-28T09:21:49.235Z,26.00
2018-07-28T09:24:17.532Z,26.00
2018-07-28T09:26:45.825Z,25.90
2018-07-28T09:29:14.832Z,25.90
2018-07-28T09:31:43.148Z,25.90
2018-07-28T09:34:11.448Z,25.80
2018-07-28T09:36:38.967Z,25.80
2018-07-28T09:39:07.226Z,25.70
2018-07-28T09:41:35.554Z,25.60
2018-07-28T09:44:03.865Z,25.60
2018-07-28T09:46:32.141Z,25.50
2018-07-28T09:49:00.994Z,25.60
2018-07-28T09:51:30.329Z,25.70
2018-07-28T09:53:59.182Z,25.90
2018-07-28T09:56:27.453Z,25.90
2018-07-28T09:58:55.822Z,25.90
2018-07-28T10:01:24.090Z,25.90
2018-07-28T10:03:52.397Z,25.90
2018-07-28T10:06:20.670Z,25.90
2018-07-28T10:08:49.136Z,25.80
2018-07-28T10:11:17.440Z,25.70
2018-07-28T10:13:45.749Z,25.50
2018-07-28T10:16:15.499Z,25.50
2018-07-28T10:18:44.846Z,25.60
2018-07-28T10:21:13.157Z,25.60
2018-07-28T10:23:41.550Z,25.70
2018-07-28T10:26:09.826Z,25.70
2018-07-28T10:28:38.130Z,25.60
2018-07-28T10:31:06.407Z,25.60
2018-07-28T10:33:35.657Z,25.60
2018-07-28T10:36:03.997Z,25.80
2018-07-28T10:38:32.322Z,25.80
2018-07-28T10:41:00.693Z,25.60
2018-07-28T10:43:29.048Z,25.30
2018-07-28T10:45:57.313Z,25.20
2018-07-28T10:48:25.630Z,25.40
2018-07-28T10:50:53.975Z,25.40
2018-07-28T10:53:21.619Z,25.40
2018-07-28T10:55:49.995Z,25.70
2018-07-28T10:58:18.291Z,26.00
2018-07-28T11:00:46.625Z,26.20
2018-07-28T11:03:15.596Z,26.20
2018-07-28T11:05:45.285Z,26.40
2018-07-28T11:08:15.057Z,26.50
2018-07-28T11:10:44.012Z,26.60
2018-07-28T11:13:12.282Z,26.70
2018-07-28T11:15:40.593Z,26.80
2018-07-28T11:18:08.913Z,26.90
2018-07-28T11:20:37.216Z,27.00
2018-07-28T11:23:05.593Z,27.10
2018-07-28T11:25:33.965Z,27.30
2018-07-28T11:28:02.236Z,27.50
2018-07-28T11:30:30.826Z,27.80
2018-07-28T11:33:25.854Z,27.80
2018-07-28T11:36:05.940Z,27.80
2018-07-28T11:38:46.115Z,27.90
2018-07-28T11:44:45.104Z,28.20
2018-07-28T11:47:13.457Z,28.30
2018-07-28T11:49:40.979Z,28.30
2018-07-28T11:52:09.269Z,28.00
2018-07-28T11:54:37.557Z,27.90
2018-07-28T11:57:05.873Z,28.10
2018-07-28T11:59:34.169Z,28.30
2018-07-28T12:02:02.580Z,28.40
2018-07-28T12:04:30.942Z,28.70
2018-07-28T12:07:00.150Z,28.60
2018-07-28T12:09:29.061Z,28.70
2018-07-28T12:11:57.317Z,28.70
2018-07-28T12:14:25.629Z,28.50
2018-07-28T12:16:53.906Z,28.50
2018-07-28T12:19:22.183Z,28.70
2018-07-28T12:21:50.440Z,28.70
2018-07-28T12:24:18.750Z,28.70
2018-07-28T12:26:47.049Z,28.80
2018-07-28T12:29:16.037Z,28.90
2018-07-28T12:31:45.307Z,28.90
2018-07-28T12:34:13.570Z,28.90
2018-07-28T12:36:41.857Z,28.70
2018-07-28T12:39:10.160Z,28.70
2018-07-28T12:41:38.461Z,28.80
2018-07-28T12:44:06.752Z,28.50
2018-07-28T12:46:35.050Z,28.40
2018-07-28T12:49:03.194Z,28.40
2018-07-28T12:51:31.542Z,28.40
2018-07-28T12:54:01.041Z,28.40
2018-07-28T12:56:29.065Z,28.30
2018-07-28T12:58:57.323Z,28.60
2018-07-28T13:01:25.629Z,28.80
2018-07-28T13:03:54.077Z,28.90
2018-07-28T13:06:22.345Z,28.90
2018-07-28T13:08:50.634Z,28.80
2018-07-28T13:11:18.924Z,28.50
2018-07-28T13:22:27.780Z,28.80
2018-07-28T13:24:56.153Z,28.90
2018-07-28T13:27:24.425Z,29.00
2018-07-28T13:29:52.757Z,29.10
2018-07-28T13:32:21.083Z,29.20
2018-07-28T13:34:49.395Z,29.00
2018-07-28T13:37:17.711Z,29.10
2018-07-28T13:39:46.432Z,29.00
2018-07-28T13:42:16.119Z,29.20
2018-07-28T13:44:45.368Z,29.00
2018-07-28T13:47:13.657Z,29.00
2018-07-28T13:49:41.941Z,28.90
2018-07-28T13:52:10.248Z,28.80
2018-07-28T13:54:38.577Z,28.80
2018-07-28T13:57:06.849Z,28.80
2018-07-28T13:59:35.144Z,29.00
2018-07-28T14:02:03.432Z,29.20
2018-07-28T14:04:31.733Z,29.50
2018-07-28T14:07:03.430Z,29.50
2018-07-28T14:09:31.737Z,29.50
2018-07-28T14:12:01.319Z,29.60
2018-07-28T14:14:29.634Z,29.60
2018-07-28T14:16:57.904Z,29.50
2018-07-28T14:19:26.211Z,29.30
2018-07-28T14:24:47.631Z,29.10
2018-07-28T14:27:15.934Z,29.50
2018-07-28T14:30:07.335Z,29.30
2018-07-28T14:35:28.260Z,29.30
2018-07-28T14:37:56.559Z,29.30
2018-07-28T14:49:04.394Z,28.90
2018-07-28T14:51:32.749Z,29.10
2018-07-28T14:54:11.416Z,28.90
2018-07-28T14:56:56.683Z,28.70
2018-07-28T14:59:24.245Z,28.60
2018-07-28T15:04:45.865Z,28.60
2018-07-28T15:07:14.745Z,28.50
2018-07-28T15:09:43.028Z,28.50
2018-07-28T15:15:05.409Z,28.70
2018-07-28T15:17:33.692Z,28.70
2018-07-28T15:20:01.961Z,28.60
2018-07-28T15:25:23.568Z,28.50
2018-07-28T15:27:51.845Z,28.30
2018-07-28T15:30:20.139Z,28.30
2018-07-28T15:32:48.500Z,28.30
2018-07-28T15:35:16.765Z,28.20
2018-07-28T15:37:46.369Z,28.10
2018-07-28T15:40:15.221Z,28.00
2018-07-28T15:42:43.862Z,27.80
2018-07-28T15:45:12.226Z,27.60
2018-07-28T15:47:40.551Z,27.60
2018-07-28T15:50:08.830Z,27.50
2018-07-28T15:52:37.104Z,27.30
2018-07-28T15:55:04.609Z,27.30
2018-07-28T15:57:32.908Z,27.50
2018-07-28T16:00:01.235Z,27.50
2018-07-28T16:05:22.156Z,27.40
2018-07-28T16:07:49.701Z,27.20
2018-07-28T16:10:17.963Z,27.10
2018-07-28T16:12:46.246Z,27.20
2018-07-28T16:15:14.539Z,27.50
2018-07-28T16:20:35.231Z,27.30
2018-07-28T16:23:03.503Z,27.20
2018-07-28T16:25:31.814Z,27.10
2018-07-28T16:28:01.321Z,27.20
2018-07-28T16:30:29.624Z,27.00
2018-07-28T16:32:57.921Z,26.90
2018-07-28T16:35:25.461Z,26.90
2018-07-28T16:37:53.036Z,26.70
2018-07-28T16:40:21.344Z,26.50
2018-07-28T16:45:42.569Z,26.60
2018-07-28T16:51:03.504Z,26.40
2018-07-28T16:53:31.833Z,26.30
2018-07-28T16:56:00.641Z,26.30
2018-07-28T16:58:30.132Z,26.30
2018-07-28T17:00:59.125Z,26.20
2018-07-28T17:03:27.447Z,26.10
2018-07-28T17:05:55.733Z,26.20
2018-07-28T17:08:24.037Z,26.20
2018-07-28T17:10:52.313Z,26.10
2018-07-28T17:13:20.581Z,26.10
2018-07-28T17:15:48.902Z,26.20
2018-07-28T17:18:17.169Z,26.20
2018-07-28T17:20:46.110Z,26.20
2018-07-28T17:23:14.380Z,26.20
2018-07-28T17:25:42.680Z,26.20
2018-07-28T17:28:10.944Z,26.20
2018-07-28T17:30:39.230Z,26.30
2018-07-28T17:33:07.563Z,26.50
2018-07-28T17:35:35.871Z,26.50
2018-07-28T17:38:04.194Z,26.60
2018-07-28T17:40:32.528Z,26.50
2018-07-28T17:43:01.356Z,26.50
2018-07-28T17:45:29.660Z,26.40
2018-07-28T17:47:57.956Z,26.10
2018-07-28T17:50:26.597Z,26.10
2018-07-28T17:52:54.877Z,26.20
2018-07-28T17:55:23.140Z,26.30
2018-07-28T17:57:51.456Z,26.30
2018-07-28T18:00:19.739Z,26.40
2018-07-28T18:02:48.028Z,26.40
2018-07-28T18:05:15.877Z,26.30
2018-07-28T18:07:44.953Z,26.00
2018-07-28T18:10:14.764Z,25.90
2018-07-28T18:12:43.016Z,26.00
2018-07-28T18:15:10.537Z,25.90
2018-07-28T18:17:38.812Z,25.80
2018-07-28T18:20:07.121Z,25.90
2018-07-28T18:24:54.134Z,25.80
2018-07-28T18:27:22.431Z,25.70
2018-07-28T18:29:54.877Z,25.80
2018-07-28T18:32:23.144Z,25.80
2018-07-28T18:34:51.430Z,25.70
2018-07-28T18:37:19.726Z,25.70
2018-07-28T18:39:48.075Z,25.60
2018-07-28T18:42:16.343Z,25.50
2018-07-28T18:44:44.732Z,25.40
2018-07-28T18:47:13.033Z,25.50
2018-07-28T18:49:41.294Z,25.40
2018-07-28T18:52:09.615Z,25.20
2018-07-28T18:54:37.883Z,25.10
2018-07-28T18:57:06.156Z,25.20
2018-07-28T18:59:34.413Z,25.10
2018-07-28T19:02:02.734Z,25.10
2018-07-28T19:04:31.006Z,25.10
2018-07-28T19:06:59.728Z,25.10
2018-07-28T19:09:27.996Z,24.90
2018-07-28T19:11:56.353Z,25.00
2018-07-28T19:14:34.245Z,24.80
2018-07-28T19:17:01.757Z,24.80
2018-07-28T19:19:31.329Z,24.70
2018-07-28T19:21:59.628Z,24.70
2018-07-28T19:24:27.164Z,24.70
2018-07-28T19:26:55.463Z,24.80
2018-07-28T19:29:41.542Z,24.60
2018-07-28T19:32:09.815Z,24.30
2018-07-28T19:34:38.123Z,24.30
2018-07-28T19:37:12.118Z,24.20
2018-07-28T19:39:40.427Z,24.10
2018-07-28T19:42:08.709Z,24.10
2018-07-28T19:44:36.985Z,24.10
2018-07-28T19:47:05.305Z,24.20
2018-07-28T19:49:33.547Z,24.30
2018-07-28T19:52:01.830Z,24.00
2018-07-28T19:54:30.940Z,24.10
2018-07-28T19:57:00.066Z,24.10
2018-07-28T19:59:28.346Z,24.20
2018-07-28T20:01:56.676Z,24.10
2018-07-28T20:04:24.943Z,23.90
2018-07-28T20:06:52.481Z,23.90
2018-07-28T20:09:20.802Z,23.70
2018-07-28T20:11:49.072Z,23.80
2018-07-28T20:14:17.464Z,23.70
2018-07-28T20:16:45.858Z,23.70
2018-07-28T20:19:15.217Z,23.90
2018-07-28T20:21:43.474Z,23.90
2018-07-28T20:24:10.979Z,23.90
2018-07-28T20:26:39.302Z,23.70
2018-07-28T20:29:07.569Z,23.60
2018-07-28T20:31:35.872Z,23.80
2018-07-28T20:34:04.142Z,23.60
2018-07-28T20:36:32.435Z,23.70
2018-07-28T20:39:01.741Z,23.70
2018-07-28T20:41:31.125Z,23.70
2018-07-28T20:44:00.241Z,23.80
2018-07-28T20:46:27.786Z,23.70
2018-07-28T20:48:55.380Z,23.60
2018-07-28T20:51:23.647Z,23.50
2018-07-28T20:53:51.908Z,23.30
2018-07-28T20:56:20.185Z,23.20
2018-07-28T20:58:48.488Z,23.20
2018-07-28T21:01:16.764Z,23.30
2018-07-28T21:03:45.784Z,23.30
2018-07-28T21:06:15.603Z,23.30
2018-07-28T21:08:44.752Z,23.40
2018-07-28T21:11:13.118Z,23.50
2018-07-28T21:13:41.413Z,23.50
2018-07-28T21:16:09.703Z,23.30
2018-07-28T21:18:37.981Z,23.20
2018-07-28T21:21:06.252Z,23.10
2018-07-28T21:23:33.825Z,23.10
2018-07-28T21:26:02.091Z,23.10
2018-07-28T21:28:30.650Z,23.00
2018-07-28T21:30:59.592Z,23.00
2018-07-28T21:33:28.066Z,23.00
2018-07-28T21:35:56.306Z,23.00
2018-07-28T21:38:24.560Z,22.90
2018-07-28T21:40:52.842Z,22.90
2018-07-28T21:43:21.112Z,22.80
2018-07-28T21:45:48.636Z,22.80
2018-07-28T21:48:16.896Z,22.70
2018-07-28T21:50:46.561Z,22.60
2018-07-28T21:53:16.177Z,22.50
2018-07-28T21:55:44.465Z,22.50
2018-07-28T21:58:12.756Z,22.40
2018-07-28T22:00:41.088Z,22.50
2018-07-28T22:03:09.345Z,22.30
2018-07-28T22:05:37.670Z,22.30
2018-07-28T22:08:05.929Z,22.30
2018-07-28T22:10:34.209Z,22.40
2018-07-28T22:13:02.517Z,22.40
2018-07-28T22:15:30.779Z,22.30
2018-07-28T22:17:59.989Z,22.30
2018-07-28T22:20:28.296Z,22.30
2018-07-28T22:22:56.598Z,22.40
2018-07-28T22:25:24.901Z,22.50
2018-07-28T22:27:53.163Z,22.50
2018-07-28T22:30:21.452Z,22.40
2018-07-28T22:32:49.747Z,22.40
2018-07-28T22:35:18.009Z,22.30
2018-07-28T22:37:46.293Z,22.30
2018-07-28T22:40:16.036Z,22.30
2018-07-28T22:42:44.337Z,22.30
2018-07-28T22:45:12.620Z,22.40
2018-07-28T22:47:40.917Z,22.40
2018-07-28T22:50:09.198Z,22.20
2018-07-28T22:52:37.481Z,22.10
2018-07-28T22:55:05.758Z,22.00
2018-07-28T22:57:34.125Z,22.00
2018-07-28T23:00:02.513Z,22.00
2018-07-28T23:02:30.776Z,21.90
2018-07-28T23:05:00.102Z,21.90
2018-07-28T23:07:28.376Z,22.00
2018-07-28T23:09:56.650Z,21.90
2018-07-28T23:12:24.959Z,21.90
2018-07-28T23:14:53.258Z,21.80
2018-07-28T23:17:21.559Z,21.80
2018-07-28T23:19:49.804Z,21.80
2018-07-28T23:22:18.068Z,21.80
2018-07-28T23:24:46.345Z,21.70
2018-07-28T23:27:15.357Z,21.60
2018-07-28T23:29:42.918Z,21.60
2018-07-28T23:32:11.285Z,21.60
2018-07-28T23:34:39.554Z,21.60
2018-07-28T23:37:07.861Z,21.70
2018-07-28T23:39:36.202Z,21.60
2018-07-28T23:42:04.525Z,21.60
2018-07-28T23:44:32.807Z,21.60
2018-07-28T23:47:01.110Z,21.60
2018-07-28T23:49:32.407Z,21.60
2018-07-28T23:52:01.358Z,21.60
2018-07-28T23:54:29.270Z,21.60
2018-07-28T23:56:57.576Z,21.60
2018-07-28T23:59:25.840Z,21.50
